createdAt,value
2022-11-15T00:00:12.341Z,11.06
2022-11-15T00:02:41.412Z,11.08
2022-11-15T00:05:11.439Z,11.13
2022-11-15T00:07:55.186Z,11.16
2022-11-15T00:10:24.886Z,11.20
2022-11-15T00:12:54.348Z,11.25
2022-11-15T00:15:23.362Z,11.30
2022-11-15T00:17:52.729Z,11.33
2022-11-15T00:20:23.242Z,11.35
2022-11-15T00:22:52.110Z,11.36
2022-11-15T00:25:21.135Z,11.36
2022-11-15T00:27:49.867Z,11.36
2022-11-15T00:30:18.851Z,11.34
2022-11-15T00:32:47.745Z,11.31
2022-11-15T00:35:30.010Z,11.28
2022-11-15T00:38:00.585Z,11.24
2022-11-15T00:40:29.537Z,11.20
2022-11-15T00:42:58.525Z,11.20
2022-11-15T00:45:28.219Z,11.18
2022-11-15T00:47:57.253Z,11.17
2022-11-15T00:50:26.176Z,11.15
2022-11-15T00:52:55.252Z,11.16
2022-11-15T00:55:25.762Z,11.12
2022-11-15T00:57:54.795Z,11.12
2022-11-15T01:00:23.645Z,11.08
2022-11-15T01:02:52.990Z,11.06
2022-11-15T01:05:24.491Z,11.05
2022-11-15T01:07:57.219Z,11.04
2022-11-15T01:10:27.249Z,11.03
2022-11-15T01:12:56.062Z,11.02
2022-11-15T01:15:25.049Z,11.02
2022-11-15T01:17:53.813Z,11.04
2022-11-15T01:20:22.874Z,11.07
2022-11-15T01:22:51.925Z,11.08
2022-11-15T01:25:26.294Z,11.08
2022-11-15T01:27:56.338Z,11.09
2022-11-15T01:30:25.236Z,11.10
2022-11-15T01:32:53.866Z,11.13
2022-11-15T01:35:22.833Z,11.14
2022-11-15T01:37:51.616Z,11.17
2022-11-15T01:40:20.714Z,11.20
2022-11-15T01:42:49.578Z,11.23
2022-11-15T01:45:20.088Z,11.25
2022-11-15T01:47:55.000Z,11.26
2022-11-15T01:50:28.325Z,11.28
2022-11-15T01:52:57.599Z,11.29
2022-11-15T01:55:30.607Z,11.29
2022-11-15T01:58:03.620Z,11.29
2022-11-15T02:00:34.557Z,11.32
2022-11-15T02:03:04.788Z,11.33
2022-11-15T02:05:34.135Z,11.30
2022-11-15T02:08:04.171Z,11.31
2022-11-15T02:10:33.156Z,11.33
2022-11-15T02:13:03.732Z,11.31
2022-11-15T02:15:42.901Z,11.29
2022-11-15T02:18:20.387Z,11.29
2022-11-15T02:21:05.780Z,11.29
2022-11-15T02:23:59.724Z,11.31
2022-11-15T02:27:00.632Z,11.33
2022-11-15T02:29:44.914Z,11.33
2022-11-15T02:32:21.471Z,11.28
2022-11-15T02:34:58.016Z,11.28
2022-11-15T02:37:35.082Z,11.25
2022-11-15T02:40:12.067Z,11.24
2022-11-15T02:43:08.301Z,11.24
2022-11-15T02:45:42.694Z,11.21
2022-11-15T02:48:14.877Z,11.21
2022-11-15T02:50:45.387Z,11.19
2022-11-15T02:53:14.691Z,11.20
2022-11-15T02:55:49.867Z,11.18
2022-11-15T02:58:35.781Z,11.16
2022-11-15T03:01:12.395Z,11.12
2022-11-15T03:03:56.356Z,11.06
2022-11-15T03:06:35.739Z,10.96
2022-11-15T03:09:10.883Z,10.87
2022-11-15T03:11:45.135Z,10.78
2022-11-15T03:14:24.078Z,10.65
2022-11-15T03:17:01.123Z,10.49
2022-11-15T03:19:37.221Z,10.36
2022-11-15T03:22:10.324Z,10.29
2022-11-15T03:24:40.300Z,10.23
2022-11-15T03:27:09.878Z,10.20
2022-11-15T03:29:40.900Z,10.15
2022-11-15T03:32:13.311Z,10.11
2022-11-15T03:34:46.836Z,10.07
2022-11-15T03:37:16.704Z,10.02
2022-11-15T03:39:44.940Z,10.01
2022-11-15T03:42:23.477Z,9.99
2022-11-15T03:44:57.889Z,10.00
2022-11-15T03:47:29.428Z,9.99
2022-11-15T03:50:04.211Z,9.97
2022-11-15T03:52:36.023Z,9.96
2022-11-15T03:55:06.041Z,9.96
2022-11-15T03:57:33.657Z,9.93
2022-11-15T04:00:01.244Z,9.91
2022-11-15T04:02:29.145Z,9.87
2022-11-15T04:04:56.682Z,9.85
2022-11-15T04:07:25.652Z,9.82
2022-11-15T04:10:06.229Z,9.78
2022-11-15T04:12:35.180Z,9.73
2022-11-15T04:15:10.978Z,9.67
2022-11-15T04:17:41.524Z,9.64
2022-11-15T04:20:29.543Z,9.58
2022-11-15T04:23:17.649Z,9.53
2022-11-15T04:25:46.319Z,9.49
2022-11-15T04:28:13.859Z,9.46
2022-11-15T04:30:41.461Z,9.42
2022-11-15T04:33:09.003Z,9.37
2022-11-15T04:35:36.796Z,9.33
2022-11-15T04:38:07.274Z,9.30
2022-11-15T04:40:35.126Z,9.29
2022-11-15T04:43:04.177Z,9.24
2022-11-15T04:45:32.442Z,9.20
2022-11-15T04:47:59.992Z,9.16
2022-11-15T04:50:27.553Z,9.13
2022-11-15T04:52:56.168Z,9.10
2022-11-15T04:55:24.981Z,9.07
2022-11-15T04:58:00.940Z,9.05
2022-11-15T05:00:29.912Z,9.05
2022-11-15T05:03:15.128Z,9.07
2022-11-15T05:05:42.670Z,9.09
2022-11-15T05:08:10.455Z,9.12
2022-11-15T05:10:39.321Z,9.15
2022-11-15T05:13:06.830Z,9.16
2022-11-15T05:15:34.332Z,9.17
2022-11-15T05:18:02.092Z,9.19
2022-11-15T05:20:29.595Z,9.16
2022-11-15T05:22:57.318Z,9.16
2022-11-15T05:25:25.047Z,9.18
2022-11-15T05:27:54.130Z,9.18
2022-11-15T05:30:22.015Z,9.14
2022-11-15T05:32:49.722Z,9.11
2022-11-15T05:35:23.541Z,9.11
2022-11-15T05:37:51.275Z,9.13
2022-11-15T05:40:19.080Z,9.17
2022-11-15T05:42:47.646Z,9.21
2022-11-15T05:45:18.496Z,9.22
2022-11-15T05:47:49.446Z,9.22
2022-11-15T05:50:20.386Z,9.20
2022-11-15T05:52:49.228Z,9.20
2022-11-15T05:55:17.243Z,9.21
2022-11-15T05:57:44.869Z,9.22
2022-11-15T06:00:13.616Z,9.23
2022-11-15T06:02:42.466Z,9.22
2022-11-15T06:05:10.049Z,9.21
2022-11-15T06:07:37.587Z,9.20
2022-11-15T06:10:05.700Z,9.21
2022-11-15T06:12:33.179Z,9.22
2022-11-15T06:15:00.686Z,9.22
2022-11-15T06:17:29.225Z,9.19
2022-11-15T06:19:58.062Z,9.20
2022-11-15T06:22:25.593Z,9.19
2022-11-15T06:24:54.915Z,9.18
2022-11-15T06:27:24.765Z,9.17
2022-11-15T06:39:25.467Z,9.16
2022-11-15T06:44:34.868Z,9.16
2022-11-15T06:47:02.513Z,9.15
2022-11-15T06:49:30.188Z,9.15
2022-11-15T07:08:19.491Z,9.15
2022-11-15T07:10:47.597Z,9.17
2022-11-15T07:13:18.260Z,9.20
2022-11-15T07:15:46.947Z,9.21
2022-11-15T07:18:19.578Z,9.23
2022-11-15T07:20:48.113Z,9.24
2022-11-15T07:23:17.784Z,9.28
2022-11-15T07:25:46.215Z,9.32
2022-11-15T07:28:16.262Z,9.31
2022-11-15T08:42:25.278Z,10.68
2022-11-15T08:50:35.122Z,11.12
2022-11-15T08:59:22.076Z,11.64
2022-11-15T09:01:51.241Z,11.80
2022-11-15T09:04:22.434Z,11.98
2022-11-15T09:06:55.040Z,12.16
2022-11-15T09:09:24.636Z,12.36
2022-11-15T09:15:14.840Z,12.74
2022-11-15T09:17:43.985Z,12.93
2022-11-15T09:20:20.029Z,13.13
2022-11-15T09:26:04.967Z,13.64
2022-11-15T10:29:55.565Z,16.52
2022-11-15T10:36:32.546Z,16.39
2022-11-15T10:53:31.600Z,16.13
2022-11-15T10:56:27.595Z,16.10
2022-11-15T10:59:01.630Z,16.05
2022-11-15T11:05:12.104Z,16.05
2022-11-15T12:04:04.449Z,16.14
2022-11-15T12:07:29.040Z,16.21
2022-11-15T12:10:58.906Z,16.31
2022-11-15T12:20:42.240Z,16.35
2022-11-15T12:24:08.605Z,16.36
2022-11-15T12:26:56.317Z,16.36
2022-11-15T12:33:19.154Z,16.33
2022-11-15T12:36:29.605Z,16.33
2022-11-15T12:42:44.596Z,16.35
2022-11-15T12:45:43.954Z,16.36
2022-11-15T12:49:04.545Z,16.35
2022-11-15T12:52:16.671Z,16.38
2022-11-15T14:02:44.964Z,16.08
2022-11-15T14:28:09.672Z,15.69
2022-11-15T14:30:59.372Z,15.61
2022-11-15T14:38:16.411Z,15.48
2022-11-15T14:42:04.830Z,15.44
2022-11-15T14:53:23.258Z,15.22
2022-11-15T15:06:17.485Z,14.97
2022-11-15T15:25:25.469Z,14.43
2022-11-15T15:27:53.065Z,14.27
2022-11-15T15:30:20.916Z,14.16
2022-11-15T15:32:48.425Z,14.04
2022-11-15T15:35:16.994Z,13.96
2022-11-15T15:37:45.802Z,13.92
2022-11-15T15:40:17.861Z,13.90
2022-11-15T15:42:45.707Z,13.89
2022-11-15T15:45:13.580Z,13.88
2022-11-15T15:47:41.430Z,13.87
2022-11-15T15:50:24.174Z,13.84
2022-11-15T15:52:52.527Z,13.80
2022-11-15T15:55:22.294Z,13.73
2022-11-15T15:57:50.434Z,13.65
2022-11-15T16:00:19.672Z,13.58
2022-11-15T16:02:47.772Z,13.52
2022-11-15T16:05:15.341Z,13.47
2022-11-15T16:07:44.168Z,13.43
2022-11-15T16:10:21.204Z,13.37
2022-11-15T16:12:50.217Z,13.30
2022-11-15T16:15:18.557Z,13.22
2022-11-15T16:17:49.531Z,13.16
2022-11-15T16:20:33.646Z,13.12
2022-11-15T16:23:07.353Z,13.09
2022-11-15T16:25:41.776Z,13.07
2022-11-15T16:28:18.553Z,13.03
2022-11-15T16:30:46.524Z,13.01
2022-11-15T16:33:14.259Z,12.98
2022-11-15T16:35:41.899Z,12.95
2022-11-15T16:38:16.226Z,12.93
2022-11-15T16:40:44.161Z,12.88
2022-11-15T16:43:11.793Z,12.84
2022-11-15T16:45:40.625Z,12.81
2022-11-15T16:48:08.300Z,12.74
2022-11-15T16:50:40.747Z,12.69
2022-11-15T16:53:08.754Z,12.65
2022-11-15T16:55:36.326Z,12.61
2022-11-15T16:58:03.853Z,12.60
2022-11-15T17:00:31.532Z,12.57
2022-11-15T17:03:00.460Z,12.54
2022-11-15T17:05:40.138Z,12.51
2022-11-15T17:14:10.568Z,12.39
2022-11-15T17:16:42.274Z,12.37
2022-11-15T17:19:18.323Z,12.31
2022-11-15T17:21:46.995Z,12.28
2022-11-15T17:24:14.567Z,12.26
2022-11-15T17:26:42.906Z,12.25
2022-11-15T17:29:10.683Z,12.20
2022-11-15T17:31:39.740Z,12.21
2022-11-15T17:34:08.902Z,12.19
2022-11-15T17:36:38.158Z,12.17
2022-11-15T17:39:08.982Z,12.13
2022-11-15T17:41:45.262Z,12.11
2022-11-15T17:44:27.338Z,12.09
2022-11-15T17:46:56.816Z,12.07
2022-11-15T17:49:25.827Z,12.05
2022-11-15T17:51:54.845Z,12.05
2022-11-15T17:54:22.416Z,12.01
2022-11-15T17:56:50.017Z,12.00
2022-11-15T17:59:21.316Z,11.96
2022-11-15T18:01:49.252Z,11.91
2022-11-15T18:04:16.836Z,11.85
2022-11-15T18:06:44.434Z,11.81
2022-11-15T18:09:13.537Z,11.78
2022-11-15T18:11:43.168Z,11.77
2022-11-15T18:14:14.938Z,11.74
2022-11-15T18:16:43.407Z,11.73
2022-11-15T18:19:13.573Z,11.72
2022-11-15T18:21:57.030Z,11.73
2022-11-15T18:24:28.153Z,11.74
2022-11-15T18:26:56.563Z,11.73
2022-11-15T18:29:25.497Z,11.73
2022-11-15T18:31:56.041Z,11.71
2022-11-15T18:34:24.537Z,11.70
2022-11-15T18:36:53.370Z,11.70
2022-11-15T18:39:21.278Z,11.70
2022-11-15T18:41:50.304Z,11.70
2022-11-15T18:44:18.718Z,11.68
2022-11-15T18:46:48.571Z,11.68
2022-11-15T18:49:19.592Z,11.65
2022-11-15T18:51:47.515Z,11.64
2022-11-15T18:54:18.076Z,11.65
2022-11-15T18:56:46.956Z,11.66
2022-11-15T18:59:16.622Z,11.64
2022-11-15T19:01:47.126Z,11.64
2022-11-15T19:04:17.444Z,11.64
2022-11-15T19:06:47.012Z,11.62
2022-11-15T19:09:16.393Z,11.60
2022-11-15T19:11:45.459Z,11.54
2022-11-15T19:14:14.797Z,11.51
2022-11-15T19:16:45.551Z,11.49
2022-11-15T19:19:15.626Z,11.48
2022-11-15T19:21:43.444Z,11.45
2022-11-15T19:24:11.428Z,11.44
2022-11-15T19:26:39.647Z,11.44
2022-11-15T19:29:10.177Z,11.40
2022-11-15T19:31:38.590Z,11.38
2022-11-15T19:34:08.030Z,11.35
2022-11-15T19:36:38.139Z,11.33
2022-11-15T19:39:09.580Z,11.31
2022-11-15T19:41:38.601Z,11.29
2022-11-15T19:44:06.454Z,11.28
2022-11-15T19:46:34.734Z,11.28
2022-11-15T19:49:02.755Z,11.26
2022-11-15T19:51:31.982Z,11.24
2022-11-15T19:54:06.134Z,11.21
2022-11-15T19:56:34.971Z,11.19
2022-11-15T19:59:03.245Z,11.14
2022-11-15T20:01:32.756Z,11.14
2022-11-15T20:04:01.353Z,11.13
2022-11-15T20:06:32.141Z,11.12
2022-11-15T20:09:00.002Z,11.10
2022-11-15T20:11:28.034Z,11.09
2022-11-15T20:13:58.335Z,11.10
2022-11-15T20:16:26.099Z,11.08
2022-11-15T20:18:53.980Z,11.06
2022-11-15T20:21:22.134Z,11.03
2022-11-15T20:23:51.635Z,11.02
2022-11-15T20:26:19.925Z,11.01
2022-11-15T20:28:48.165Z,11.00
2022-11-15T20:31:16.962Z,10.99
2022-11-15T20:33:45.008Z,10.98
2022-11-15T20:36:15.262Z,10.99
2022-11-15T20:38:43.367Z,11.00
2022-11-15T20:41:13.051Z,11.01
2022-11-15T20:43:43.250Z,11.03
2022-11-15T20:46:11.147Z,11.03
2022-11-15T20:48:38.710Z,11.04
2022-11-15T20:51:08.246Z,11.05
2022-11-15T20:53:36.240Z,11.06
2022-11-15T20:56:08.079Z,11.07
2022-11-15T21:03:56.782Z,10.99
